LETO/TOJ METAR and TAF weather

Enter ICAO airport designator
Station Type Date Time Source
LETO METAR 2022/11/30 16:00 UTC NOAA

LETO 301600Z 15003KT CAVOK 11/03 Q1014 NOSIG


Station Type Date Time Source
LETO Decoded METAR 2022/11/30 16:00 UTC NOAA

Madrid / Torrejon, Spain (LETO) 40-29N 003-27W 611M
Nov 30, 2022 - 11:00 AM EST / 2022.11.30 1600 UTC
Wind: from the SSE (150 degrees) at 3 MPH (3 KT):0
Visibility: greater than 7 mile(s):0
Temperature: 51 F (11 C)
Dew Point: 37 F (3 C)
Relative Humidity: 57%
Pressure (altimeter): 29.94 in. Hg (1014 hPa)
ob: LETO 301600Z 15003KT CAVOK 11/03 Q1014 NOSIG
cycle: 16

Station Type Date Time Source
LETO TAF 2022/11/30 12:27 UTC NOAA

TAF LETO 301100Z 3012/0112 VRB04KT CAVOK TX12/3015Z TN01/0106Z
BECMG 3022/3023 03010KT

Example: see airport list